Time;durP1;ratioP1;P1;durP2;ratioP2;P2;SDS_P1;SDS_P2;PMS_P1;PMS_P2;Temp;Humidity;BMP_temperature;BMP_pressure;BME280_temperature;BME280_humidity;BME280_pressure;Samples;Min_cycle;Max_cycle;Signal;HPM_P1;HPM_P2
2023/10/13 00:02:02;;;;;;;0.30;0.15;;;;;;;;;;5143149;27;20051;-78
2023/10/13 00:04:32;;;;;;;0.20;0.20;;;;;;;;;;5138292;27;20087;-78
2023/10/13 00:07:01;;;;;;;0.60;0.60;;;;;;;;;;5141017;27;20162;-78
2023/10/13 00:09:38;;;;;;;0.40;0.30;;;;;;;;;;5121512;27;20051;-78
2023/10/13 00:12:09;;;;;;;0.43;0.30;;;;;;;;;;5141188;27;20544;-78
2023/10/13 00:14:37;;;;;;;0.10;0.10;;;;;;;;;;5138562;27;20051;-78
2023/10/13 00:17:05;;;;;;;0.17;0.15;;;;;;;;;;5137168;27;20051;-78
2023/10/13 00:19:44;;;;;;;0.55;0.52;;;;;;;;;;5140739;27;20057;-78
2023/10/13 00:22:22;;;;;;;0.63;0.30;;;;;;;;;;5119016;27;20566;-78
2023/10/13 00:24:51;;;;;;;0.35;0.35;;;;;;;;;;5142768;27;20039;-78
2023/10/13 00:27:33;;;;;;;0.13;0.13;;;;;;;;;;5135868;27;20047;-78
2023/10/13 00:32:47;;;;;;;0.35;0.30;;;;;;;;;;5137944;27;20097;-78
2023/10/13 00:35:28;;;;;;;0.20;0.20;;;;;;;;;;5152944;27;20046;-78
2023/10/13 00:37:56;;;;;;;0.10;0.10;;;;;;;;;;5141116;27;20051;-78
2023/10/13 00:43:28;;;;;;;0.10;0.10;;;;;;;;;;5138979;27;20059;-78
2023/10/13 00:45:54;;;;;;;0.63;0.45;;;;;;;;;;5136747;27;20579;-78
2023/10/13 00:48:34;;;;;;;0.20;0.20;;;;;;;;;;5132680;27;20051;-78
2023/10/13 00:51:02;;;;;;;0.20;0.20;;;;;;;;;;5146141;27;20058;-78
2023/10/13 00:53:39;;;;;;;0.52;0.52;;;;;;;;;;5145192;27;20138;-78
2023/10/13 00:56:07;;;;;;;0.32;0.30;;;;;;;;;;5142194;27;20611;-78
2023/10/13 00:58:34;;;;;;;0.30;0.30;;;;;;;;;;5153781;22;20043;-78
2023/10/13 01:01:17;;;;;;;0.10;0.10;;;;;;;;;;5114715;27;20031;-78
2023/10/13 01:03:45;;;;;;;0.93;0.65;;;;;;;;;;5114786;27;21026;-78
2023/10/13 01:06:12;;;;;;;0.28;0.28;;;;;;;;;;5117294;27;20911;-78
2023/10/13 01:08:38;;;;;;;0.32;0.30;;;;;;;;;;5117596;27;20590;-78
2023/10/13 01:11:07;;;;;;;0.45;0.45;;;;;;;;;;5116622;27;20059;-78
2023/10/13 01:13:36;;;;;;;1.75;0.57;;;;;;;;;;5113187;27;20144;-78
2023/10/13 01:16:04;;;;;;;0.10;0.10;;;;;;;;;;5097126;28;20044;-78
2023/10/13 01:18:31;;;;;;;0.47;0.32;;;;;;;;;;5116484;27;20072;-78
2023/10/13 01:20:59;;;;;;;0.10;0.10;;;;;;;;;;5094921;28;20053;-78
2023/10/13 01:23:28;;;;;;;0.47;0.40;;;;;;;;;;5098260;28;20056;-78
2023/10/13 01:25:56;;;;;;;1.33;0.90;;;;;;;;;;5097836;27;20135;-78
2023/10/13 01:28:23;;;;;;;1.25;0.65;;;;;;;;;;5098196;28;20048;-78
2023/10/13 01:30:50;;;;;;;0.80;0.65;;;;;;;;;;5089464;27;20053;-78
2023/10/13 01:33:23;;;;;;;0.10;0.10;;;;;;;;;;5096149;28;20048;-78
2023/10/13 01:35:55;;;;;;;0.20;0.20;;;;;;;;;;5094499;27;20423;-78
2023/10/13 01:38:21;;;;;;;0.75;0.45;;;;;;;;;;5097305;28;20108;-78
2023/10/13 01:40:51;;;;;;;1.60;0.90;;;;;;;;;;5096234;28;20118;-78
2023/10/13 01:43:17;;;;;;;0.20;0.20;;;;;;;;;;5095596;28;20138;-78
2023/10/13 01:45:47;;;;;;;0.50;0.38;;;;;;;;;;5090112;27;20079;-78
2023/10/13 01:48:18;;;;;;;0.22;0.22;;;;;;;;;;5109768;27;20066;-78
2023/10/13 01:50:55;;;;;;;0.10;0.10;;;;;;;;;;5096339;28;20875;-78
2023/10/13 01:53:22;;;;;;;0.90;0.68;;;;;;;;;;5095838;27;20064;-78
2023/10/13 01:55:51;;;;;;;0.10;0.10;;;;;;;;;;5096987;28;20852;-78
2023/10/13 01:58:22;;;;;;;0.60;0.60;;;;;;;;;;5089736;28;20137;-78
2023/10/13 02:00:49;;;;;;;0.13;0.13;;;;;;;;;;5095173;28;20048;-78
2023/10/13 02:03:16;;;;;;;0.10;0.10;;;;;;;;;;5097207;27;20263;-78
2023/10/13 02:05:46;;;;;;;0.20;0.20;;;;;;;;;;5091526;28;20056;-78
2023/10/13 02:08:17;;;;;;;0.80;0.22;;;;;;;;;;5113377;28;20056;-78
2023/10/13 02:10:44;;;;;;;1.00;0.90;;;;;;;;;;5096313;28;20056;-78
2023/10/13 02:13:16;;;;;;;0.10;0.10;;;;;;;;;;5093634;27;20060;-78
2023/10/13 02:15:44;;;;;;;0.85;0.40;;;;;;;;;;5107606;27;20087;-78
2023/10/13 02:18:13;;;;;;;0.85;0.70;;;;;;;;;;5091158;27;20957;-79
2023/10/13 02:20:44;;;;;;;0.85;0.55;;;;;;;;;;5095158;28;20063;-78
2023/10/13 02:23:10;;;;;;;0.30;0.30;;;;;;;;;;5102261;27;20942;-78
2023/10/13 02:25:43;;;;;;;0.63;0.52;;;;;;;;;;5090525;28;20068;-78
2023/10/13 02:28:13;;;;;;;1.80;0.80;;;;;;;;;;5108718;27;20079;-78
2023/10/13 02:30:44;;;;;;;0.20;0.20;;;;;;;;;;5093299;27;20055;-78
2023/10/13 02:33:14;;;;;;;0.15;0.15;;;;;;;;;;5090025;28;20049;-78
2023/10/13 02:35:50;;;;;;;0.45;0.30;;;;;;;;;;5114428;27;20052;-78
2023/10/13 02:38:25;;;;;;;0.20;0.20;;;;;;;;;;5108063;27;20990;-78
2023/10/13 02:40:53;;;;;;;0.32;0.30;;;;;;;;;;5094301;27;20070;-78
2023/10/13 02:43:22;;;;;;;0.32;0.32;;;;;;;;;;5113381;27;20064;-78
2023/10/13 02:45:58;;;;;;;0.20;0.20;;;;;;;;;;5099991;28;20044;-78
2023/10/13 02:48:26;;;;;;;0.10;0.10;;;;;;;;;;5116250;27;20082;-78
2023/10/13 02:50:56;;;;;;;1.05;0.55;;;;;;;;;;5121654;27;20103;-78
2023/10/13 02:53:23;;;;;;;4.53;0.52;;;;;;;;;;5105341;28;20052;-78
2023/10/13 02:55:53;;;;;;;0.28;0.28;;;;;;;;;;5100051;28;20090;-78
2023/10/13 02:58:20;;;;;;;0.10;0.10;;;;;;;;;;5101643;27;20084;-78
2023/10/13 03:00:47;;;;;;;0.10;0.10;;;;;;;;;;5103072;28;20088;-78
2023/10/13 03:03:18;;;;;;;0.40;0.40;;;;;;;;;;5100398;28;20051;-78
2023/10/13 03:05:45;;;;;;;0.47;0.22;;;;;;;;;;5097783;27;20995;-78
2023/10/13 03:08:17;;;;;;;0.10;0.10;;;;;;;;;;5115213;27;20053;-78
2023/10/13 03:10:48;;;;;;;0.20;0.20;;;;;;;;;;5115321;27;20098;-78
2023/10/13 03:13:14;;;;;;;0.25;0.25;;;;;;;;;;5118747;27;20113;-79
2023/10/13 03:15:40;;;;;;;0.10;0.10;;;;;;;;;;5102674;27;20135;-79
2023/10/13 03:18:07;;;;;;;0.10;0.10;;;;;;;;;;5100807;28;20056;-79
2023/10/13 03:20:41;;;;;;;0.20;0.20;;;;;;;;;;5102031;28;20040;-79
2023/10/13 03:23:09;;;;;;;0.10;0.10;;;;;;;;;;5118571;27;20056;-79
2023/10/13 03:25:49;;;;;;;0.20;0.20;;;;;;;;;;5096798;27;20177;-79
2023/10/13 03:28:20;;;;;;;0.10;0.10;;;;;;;;;;5097948;27;20048;-79
2023/10/13 03:30:52;;;;;;;0.32;0.32;;;;;;;;;;5095522;28;20104;-78
2023/10/13 03:33:26;;;;;;;0.20;0.20;;;;;;;;;;5100298;27;20056;-79
2023/10/13 03:36:05;;;;;;;1.17;0.60;;;;;;;;;;5099197;28;20044;-79
2023/10/13 03:38:36;;;;;;;0.10;0.10;;;;;;;;;;5098727;27;20056;-79
2023/10/13 03:41:19;;;;;;;0.45;0.30;;;;;;;;;;5101881;27;20974;-79
2023/10/13 03:43:51;;;;;;;0.20;0.20;;;;;;;;;;5094178;27;20048;-79
2023/10/13 03:46:21;;;;;;;0.10;0.10;;;;;;;;;;5099209;27;20048;-78
2023/10/13 03:49:01;;;;;;;0.20;0.20;;;;;;;;;;5117132;27;20078;-79
2023/10/13 03:51:31;;;;;;;0.10;0.10;;;;;;;;;;5100862;28;20868;-79
2023/10/13 03:53:58;;;;;;;0.10;0.10;;;;;;;;;;5114366;27;20062;-79
2023/10/13 03:56:28;;;;;;;0.10;0.10;;;;;;;;;;5098853;28;20033;-79
2023/10/13 04:02:02;;;;;;;0.10;0.10;;;;;;;;;;5116661;27;20087;-80
2023/10/13 04:07:38;;;;;;;0.20;0.20;;;;;;;;;;5115411;27;20056;-79
2023/10/13 04:16:02;;;;;;;0.20;0.20;;;;;;;;;;5111232;27;20164;-80
2023/10/13 04:18:46;;;;;;;0.20;0.20;;;;;;;;;;5115288;27;20046;-80
2023/10/13 04:21:39;;;;;;;0.10;0.10;;;;;;;;;;5096717;27;20968;-80
2023/10/13 04:24:23;;;;;;;2.28;0.20;;;;;;;;;;5116749;27;20120;-79
2023/10/13 04:32:28;;;;;;;0.10;0.10;;;;;;;;;;5113478;27;20052;-79
2023/10/13 04:35:24;;;;;;;0.20;0.20;;;;;;;;;;5098784;27;20509;-79
2023/10/13 04:38:00;;;;;;;0.17;0.17;;;;;;;;;;5108401;27;20092;-79
2023/10/13 04:40:35;;;;;;;0.10;0.10;;;;;;;;;;5109313;27;20047;-79
2023/10/13 04:43:17;;;;;;;0.10;0.10;;;;;;;;;;5100245;28;20059;-79
2023/10/13 04:45:54;;;;;;;0.20;0.20;;;;;;;;;;5115053;27;20081;-78
2023/10/13 04:50:53;;;;;;;0.10;0.10;;;;;;;;;;5119693;27;20044;-79
2023/10/13 05:01:39;;;;;;;0.10;0.10;;;;;;;;;;5115748;27;20064;-79
2023/10/13 05:04:22;;;;;;;0.52;0.32;;;;;;;;;;5116814;27;20196;-79
2023/10/13 06:30:01;;;;;;;0.20;0.20;;;;;;;;;;5104447;27;20056;-79
2023/10/13 06:32:27;;;;;;;0.25;0.25;;;;;;;;;;5104019;27;20060;-79
2023/10/13 06:34:57;;;;;;;1.85;0.85;;;;;;;;;;5098681;28;20437;-79
2023/10/13 06:39:56;;;;;;;0.30;0.30;;;;;;;;;;5107654;27;20939;-79
2023/10/13 06:42:27;;;;;;;0.38;0.30;;;;;;;;;;5091626;28;20079;-79
2023/10/13 06:44:54;;;;;;;0.10;0.10;;;;;;;;;;5085082;27;20970;-80
2023/10/13 06:47:24;;;;;;;0.30;0.30;;;;;;;;;;5098216;27;20067;-79
2023/10/13 06:49:51;;;;;;;0.20;0.20;;;;;;;;;;5114977;27;20056;-80
2023/10/13 06:52:17;;;;;;;0.22;0.22;;;;;;;;;;5119972;27;20039;-79
2023/10/13 06:54:44;;;;;;;0.20;0.20;;;;;;;;;;5111326;27;20056;-79
2023/10/13 06:57:20;;;;;;;0.30;0.30;;;;;;;;;;5096759;28;20056;-80
2023/10/13 06:59:47;;;;;;;0.80;0.55;;;;;;;;;;5175164;22;20024;-78
2023/10/13 07:02:22;;;;;;;0.20;0.20;;;;;;;;;;5118754;27;20658;-78
2023/10/13 07:04:56;;;;;;;1.00;0.82;;;;;;;;;;5118825;27;20148;-78
2023/10/13 07:07:23;;;;;;;0.10;0.10;;;;;;;;;;5110253;27;20577;-78
2023/10/13 07:09:55;;;;;;;0.20;0.20;;;;;;;;;;5108200;28;20063;-78
2023/10/13 07:12:27;;;;;;;0.35;0.35;;;;;;;;;;5102416;27;20510;-78
2023/10/13 07:17:40;;;;;;;0.25;0.25;;;;;;;;;;5104309;27;20299;-78
2023/10/13 07:22:57;;;;;;;0.10;0.10;;;;;;;;;;5102961;28;20056;-78
2023/10/13 07:25:25;;;;;;;0.50;0.47;;;;;;;;;;5095104;27;20482;-77
2023/10/13 07:27:54;;;;;;;0.28;0.25;;;;;;;;;;5092662;28;20528;-78
2023/10/13 07:30:26;;;;;;;0.30;0.28;;;;;;;;;;5097036;27;20174;-77
2023/10/13 07:32:53;;;;;;;0.10;0.10;;;;;;;;;;5099999;27;20048;-78
2023/10/13 07:35:20;;;;;;;0.70;0.70;;;;;;;;;;5101904;27;20056;-78
2023/10/13 07:37:52;;;;;;;0.20;0.20;;;;;;;;;;5098082;28;20089;-79
2023/10/13 07:42:52;;;;;;;0.43;0.40;;;;;;;;;;5102432;28;20169;-77
2023/10/13 07:45:21;;;;;;;0.88;0.75;;;;;;;;;;5104066;27;20044;-77
2023/10/13 07:47:49;;;;;;;3.30;0.57;;;;;;;;;;5098269;27;20060;-77
2023/10/13 07:50:24;;;;;;;0.43;0.43;;;;;;;;;;5106364;27;20067;-78
2023/10/13 07:52:59;;;;;;;0.25;0.22;;;;;;;;;;5091546;28;20044;-78
2023/10/13 07:55:25;;;;;;;4.95;1.42;;;;;;;;;;5096766;27;20059;-78
2023/10/13 07:57:56;;;;;;;0.85;0.57;;;;;;;;;;5099861;27;20094;-78
2023/10/13 08:00:38;;;;;;;1.25;0.77;;;;;;;;;;5098123;27;20101;-78
2023/10/13 08:08:40;;;;;;;0.28;0.25;;;;;;;;;;5097596;27;20075;-77
2023/10/13 08:13:59;;;;;;;0.22;0.22;;;;;;;;;;5096236;27;20638;-78
2023/10/13 08:16:54;;;;;;;0.73;0.70;;;;;;;;;;5095698;27;20518;-78
2023/10/13 08:19:27;;;;;;;0.20;0.20;;;;;;;;;;5099336;28;20063;-78
2023/10/13 08:21:58;;;;;;;0.10;0.10;;;;;;;;;;5102044;27;20044;-77
2023/10/13 08:39:58;;;;;;;0.30;0.30;;;;;;;;;;5102314;27;20555;-77
2023/10/13 08:48:07;;;;;;;0.30;0.30;;;;;;;;;;5089482;27;20086;-79
2023/10/13 08:50:52;;;;;;;0.20;0.20;;;;;;;;;;5098638;27;20079;-78
2023/10/13 08:56:32;;;;;;;2.30;1.80;;;;;;;;;;5101479;27;20056;-78
2023/10/13 09:01:45;;;;;;;1.38;0.70;;;;;;;;;;5093415;28;20599;-78
2023/10/13 09:06:47;;;;;;;1.67;0.63;;;;;;;;;;5091713;27;20059;-78
2023/10/13 09:12:09;;;;;;;5.15;0.77;;;;;;;;;;5087304;27;20102;-77
2023/10/13 09:14:44;;;;;;;0.25;0.25;;;;;;;;;;5087704;28;20048;-78
2023/10/13 09:19:57;;;;;;;1.30;0.70;;;;;;;;;;5091176;27;20098;-78
2023/10/13 09:22:28;;;;;;;0.50;0.40;;;;;;;;;;5102905;28;20113;-77
2023/10/13 09:25:00;;;;;;;0.10;0.10;;;;;;;;;;5087902;27;20048;-77
2023/10/13 09:27:32;;;;;;;1.38;1.27;;;;;;;;;;5089028;27;20190;-79
2023/10/13 09:32:45;;;;;;;0.75;0.65;;;;;;;;;;5100033;27;20052;-79
2023/10/13 09:35:27;;;;;;;0.52;0.32;;;;;;;;;;5096540;27;20551;-77
2023/10/13 09:37:56;;;;;;;0.52;0.43;;;;;;;;;;5087811;27;20060;-77
2023/10/13 09:43:08;;;;;;;0.45;0.30;;;;;;;;;;5094222;27;20687;-77
2023/10/13 09:46:01;;;;;;;1.00;1.00;;;;;;;;;;5094882;27;20051;-77
2023/10/13 09:48:32;;;;;;;1.00;0.70;;;;;;;;;;5092768;27;20052;-77
2023/10/13 09:51:02;;;;;;;0.98;0.65;;;;;;;;;;5094785;27;20162;-76
2023/10/13 09:53:30;;;;;;;0.20;0.20;;;;;;;;;;5096428;27;20135;-77
2023/10/13 09:56:00;;;;;;;0.20;0.20;;;;;;;;;;5100161;28;20524;-77
2023/10/13 09:58:36;;;;;;;0.30;0.30;;;;;;;;;;5090699;28;20052;-77
2023/10/13 10:01:09;;;;;;;0.75;0.75;;;;;;;;;;5097565;27;20519;-77
2023/10/13 10:03:50;;;;;;;2.78;1.08;;;;;;;;;;5092739;27;20089;-77
2023/10/13 10:06:39;;;;;;;0.32;0.30;;;;;;;;;;5084501;28;20127;-76
2023/10/13 10:09:12;;;;;;;0.80;0.68;;;;;;;;;;5088434;28;20584;-79
2023/10/13 10:11:45;;;;;;;0.38;0.38;;;;;;;;;;5097223;28;20086;-78
2023/10/13 10:14:28;;;;;;;0.17;0.17;;;;;;;;;;5099561;27;20062;-78
2023/10/13 10:17:08;;;;;;;1.30;1.05;;;;;;;;;;5097537;27;20067;-78
2023/10/13 10:19:54;;;;;;;0.20;0.20;;;;;;;;;;5092647;28;21123;-78
2023/10/13 10:22:44;;;;;;;0.20;0.20;;;;;;;;;;5098115;28;20103;-77
2023/10/13 10:25:24;;;;;;;1.65;0.85;;;;;;;;;;5096774;28;20419;-78
2023/10/13 10:27:57;;;;;;;0.95;0.30;;;;;;;;;;5105403;27;20131;-78
2023/10/13 10:30:27;;;;;;;0.40;0.40;;;;;;;;;;5105343;27;20037;-78
2023/10/13 10:32:59;;;;;;;0.88;0.50;;;;;;;;;;5104326;28;20048;-77
2023/10/13 10:35:35;;;;;;;0.35;0.28;;;;;;;;;;5100834;27;20510;-77
2023/10/13 10:38:23;;;;;;;0.60;0.60;;;;;;;;;;5109741;27;20075;-78
2023/10/13 10:41:00;;;;;;;0.20;0.20;;;;;;;;;;5098902;28;20052;-78
2023/10/13 10:43:29;;;;;;;0.43;0.40;;;;;;;;;;5098833;27;20057;-78
2023/10/13 10:45:59;;;;;;;0.85;0.30;;;;;;;;;;5107399;27;20082;-78
2023/10/13 10:48:32;;;;;;;1.15;0.82;;;;;;;;;;5108727;27;20028;-79
2023/10/13 10:51:06;;;;;;;0.75;0.47;;;;;;;;;;5094926;27;20079;-78
2023/10/13 10:53:34;;;;;;;0.32;0.30;;;;;;;;;;5094605;28;20049;-79
2023/10/13 10:58:56;;;;;;;0.13;0.13;;;;;;;;;;5099225;27;20116;-78
2023/10/13 11:01:46;;;;;;;1.25;0.52;;;;;;;;;;5096130;28;20052;-78
2023/10/13 11:04:14;;;;;;;4.55;1.25;;;;;;;;;;5094591;27;20556;-78
2023/10/13 11:06:46;;;;;;;0.15;0.15;;;;;;;;;;5099194;28;20429;-77
2023/10/13 11:09:31;;;;;;;0.75;0.75;;;;;;;;;;5100630;27;20072;-78
2023/10/13 11:12:43;;;;;;;1.05;0.57;;;;;;;;;;5102405;27;20527;-78
2023/10/13 11:15:33;;;;;;;0.30;0.30;;;;;;;;;;5096082;27;20056;-78
2023/10/13 11:18:00;;;;;;;0.93;0.50;;;;;;;;;;5099932;28;20048;-77
2023/10/13 11:20:43;;;;;;;3.70;2.35;;;;;;;;;;5103249;27;20055;-78
2023/10/13 11:23:13;;;;;;;0.65;0.40;;;;;;;;;;5095244;27;20052;-78
2023/10/13 11:25:40;;;;;;;1.13;0.47;;;;;;;;;;5094298;27;20459;-78
2023/10/13 11:28:29;;;;;;;9.13;3.50;;;;;;;;;;5105590;27;20493;-77
2023/10/13 11:30:58;;;;;;;0.63;0.63;;;;;;;;;;5097030;28;20052;-78
2023/10/13 11:33:29;;;;;;;0.30;0.30;;;;;;;;;;5100077;28;20125;-79
2023/10/13 11:35:56;;;;;;;0.43;0.43;;;;;;;;;;5102690;27;20048;-76
2023/10/13 11:38:34;;;;;;;0.30;0.30;;;;;;;;;;5097804;27;20049;-77
2023/10/13 11:41:14;;;;;;;10.18;2.47;;;;;;;;;;5101955;27;20607;-76
2023/10/13 11:48:42;;;;;;;1.50;1.38;;;;;;;;;;5105629;27;20063;-76
2023/10/13 11:51:17;;;;;;;0.60;0.38;;;;;;;;;;5096959;28;20060;-77
2023/10/13 11:53:45;;;;;;;0.20;0.20;;;;;;;;;;5096564;27;20060;-77
2023/10/13 11:56:11;;;;;;;1.75;0.82;;;;;;;;;;5100605;27;20051;-77
2023/10/13 11:58:38;;;;;;;0.20;0.20;;;;;;;;;;5095262;28;20619;-77
2023/10/13 12:06:32;;;;;;;2.40;0.40;;;;;;;;;;5100333;28;20525;-76
2023/10/13 12:09:31;;;;;;;5.78;1.05;;;;;;;;;;5094363;27;20052;-76
2023/10/13 12:11:46;;;;;;;1.10;0.75;;;;;;;;;;5095089;28;20133;-77
2023/10/13 12:14:27;;;;;;;4.22;2.67;;;;;;;;;;5100814;27;20052;-77
2023/10/13 12:16:55;;;;;;;0.50;0.35;;;;;;;;;;5102925;28;20052;-76
2023/10/13 12:19:29;;;;;;;1.45;0.75;;;;;;;;;;5108098;27;20055;-76
2023/10/13 12:21:56;;;;;;;1.38;0.93;;;;;;;;;;5097403;28;20079;-75
2023/10/13 12:30:06;;;;;;;0.38;0.38;;;;;;;;;;5077850;28;20055;-77
2023/10/13 12:32:34;;;;;;;0.55;0.45;;;;;;;;;;5099039;28;20059;-76
2023/10/13 12:37:49;;;;;;;0.35;0.30;;;;;;;;;;5102967;27;20851;-77
2023/10/13 12:51:20;;;;;;;0.30;0.28;;;;;;;;;;5105702;28;20056;-76
2023/10/13 12:53:50;;;;;;;0.77;0.57;;;;;;;;;;5103108;28;20508;-77
2023/10/13 12:56:17;;;;;;;0.95;0.50;;;;;;;;;;5105297;28;20047;-77
2023/10/13 12:58:54;;;;;;;0.28;0.28;;;;;;;;;;5105026;28;20137;-77
2023/10/13 13:01:21;;;;;;;0.98;0.60;;;;;;;;;;5182633;22;20052;-77
2023/10/13 13:03:49;;;;;;;0.70;0.40;;;;;;;;;;5109922;27;20047;-76
2023/10/13 13:06:24;;;;;;;1.95;1.13;;;;;;;;;;5105991;27;20078;-78
2023/10/13 13:08:52;;;;;;;3.90;2.90;;;;;;;;;;5105239;27;20060;-76
2023/10/13 13:11:18;;;;;;;2.50;1.20;;;;;;;;;;5110878;27;20047;-76
2023/10/13 13:13:47;;;;;;;1.50;0.45;;;;;;;;;;5112367;27;20051;-78
2023/10/13 13:16:14;;;;;;;0.82;0.28;;;;;;;;;;5110259;27;20058;-79
2023/10/13 13:18:43;;;;;;;0.50;0.35;;;;;;;;;;5112033;27;20262;-79
2023/10/13 13:21:12;;;;;;;0.52;0.40;;;;;;;;;;5110431;27;20104;-78
2023/10/13 13:23:39;;;;;;;0.40;0.30;;;;;;;;;;5129751;27;20056;-78
2023/10/13 13:26:15;;;;;;;0.20;0.20;;;;;;;;;;5107636;27;20062;-79
2023/10/13 13:28:42;;;;;;;0.30;0.30;;;;;;;;;;5104279;27;20052;-78
2023/10/13 13:31:09;;;;;;;0.45;0.35;;;;;;;;;;5120361;27;20140;-78
2023/10/13 13:33:38;;;;;;;1.88;0.85;;;;;;;;;;5108772;27;20052;-75
2023/10/13 13:36:05;;;;;;;0.30;0.30;;;;;;;;;;5112004;27;20051;-79
2023/10/13 13:38:32;;;;;;;0.47;0.40;;;;;;;;;;5106485;27;20052;-79
2023/10/13 13:41:01;;;;;;;0.95;0.75;;;;;;;;;;5126552;27;20077;-78
2023/10/13 13:43:31;;;;;;;1.50;0.55;;;;;;;;;;5105943;27;20059;-75
2023/10/13 13:46:00;;;;;;;1.10;0.45;;;;;;;;;;5107137;27;20067;-74
2023/10/13 13:48:27;;;;;;;0.95;0.60;;;;;;;;;;5125571;27;20071;-79
2023/10/13 13:51:04;;;;;;;0.45;0.30;;;;;;;;;;5124603;27;20514;-78
2023/10/13 13:53:34;;;;;;;2.40;1.10;;;;;;;;;;5120575;27;20109;-76
2023/10/13 13:56:02;;;;;;;5.80;1.50;;;;;;;;;;5130413;27;20052;-76
2023/10/13 13:58:29;;;;;;;0.30;0.30;;;;;;;;;;5104503;27;20761;-77
2023/10/13 14:01:11;;;;;;;0.25;0.25;;;;;;;;;;5130034;27;20056;-76
2023/10/13 14:03:44;;;;;;;1.55;1.45;;;;;;;;;;5126414;27;20051;-79
2023/10/13 14:06:20;;;;;;;1.50;0.80;;;;;;;;;;5113316;27;20066;-77
2023/10/13 14:14:12;;;;;;;5.78;1.42;;;;;;;;;;5114782;27;20051;-76
2023/10/13 14:16:44;;;;;;;0.57;0.45;;;;;;;;;;5107350;27;20131;-76
2023/10/13 14:19:11;;;;;;;0.45;0.40;;;;;;;;;;5103501;27;20056;-75
2023/10/13 14:21:38;;;;;;;0.65;0.57;;;;;;;;;;5106583;27;20093;-75
2023/10/13 14:24:13;;;;;;;1.67;0.52;;;;;;;;;;5107648;27;20182;-78
2023/10/13 14:26:43;;;;;;;0.35;0.30;;;;;;;;;;5109136;27;20186;-78
2023/10/13 14:29:13;;;;;;;0.20;0.20;;;;;;;;;;5124345;27;20135;-77
2023/10/13 14:31:41;;;;;;;0.43;0.35;;;;;;;;;;5129026;27;20055;-78
2023/10/13 14:34:08;;;;;;;0.22;0.22;;;;;;;;;;5103167;27;20486;-75
2023/10/13 14:36:34;;;;;;;0.63;0.38;;;;;;;;;;5104929;27;20051;-76
2023/10/13 14:39:02;;;;;;;1.30;0.60;;;;;;;;;;5122322;27;20040;-76
2023/10/13 14:41:29;;;;;;;0.30;0.30;;;;;;;;;;5112559;27;20063;-78
2023/10/13 14:44:04;;;;;;;0.63;0.63;;;;;;;;;;5115500;27;20047;-78
2023/10/13 14:46:31;;;;;;;0.47;0.32;;;;;;;;;;5114878;27;20066;-77
2023/10/13 14:49:02;;;;;;;0.38;0.38;;;;;;;;;;5120105;27;20056;-78
2023/10/13 14:51:29;;;;;;;0.17;0.17;;;;;;;;;;5133983;27;20051;-79
2023/10/13 14:53:59;;;;;;;0.10;0.10;;;;;;;;;;5114029;27;20196;-79
2023/10/13 14:56:26;;;;;;;;;;;;;;;;;;5114406;27;20059;-79
2023/10/13 14:58:53;;;;;;;0.20;0.20;;;;;;;;;;5113861;27;43696;-79
2023/10/13 15:01:20;;;;;;;1.27;1.17;;;;;;;;;;5112037;27;20048;-77
2023/10/13 15:03:51;;;;;;;1.55;0.75;;;;;;;;;;5113175;27;20035;-79
2023/10/13 15:06:20;;;;;;;0.15;0.15;;;;;;;;;;5113382;27;20117;-77
2023/10/13 15:08:47;;;;;;;0.30;0.30;;;;;;;;;;5129773;27;20062;-79
2023/10/13 15:11:13;;;;;;;4.22;0.68;;;;;;;;;;5114728;27;20038;-79
2023/10/13 15:13:40;;;;;;;0.20;0.20;;;;;;;;;;5130968;27;20090;-78
2023/10/13 15:16:17;;;;;;;0.28;0.22;;;;;;;;;;5114458;27;20131;-78
2023/10/13 15:18:44;;;;;;;0.52;0.52;;;;;;;;;;5117369;27;20055;-79
2023/10/13 15:21:12;;;;;;;3.03;1.27;;;;;;;;;;5114883;27;20052;-79
2023/10/13 15:23:45;;;;;;;2.95;0.90;;;;;;;;;;5105274;27;20138;-79
2023/10/13 15:26:14;;;;;;;0.82;0.60;;;;;;;;;;5115518;27;20056;-81
2023/10/13 15:28:48;;;;;;;1.00;0.68;;;;;;;;;;5134572;27;20052;-80
2023/10/13 15:34:06;;;;;;;5.57;1.38;;;;;;;;;;5129345;27;20051;-80
2023/10/13 15:36:34;;;;;;;1.92;0.73;;;;;;;;;;5115086;27;20113;-78
2023/10/13 15:39:00;;;;;;;0.73;0.40;;;;;;;;;;5133433;27;20595;-80
2023/10/13 15:41:27;;;;;;;0.20;0.20;;;;;;;;;;5113080;27;20067;-80
2023/10/13 15:43:57;;;;;;;0.20;0.20;;;;;;;;;;5114762;27;20060;-81
2023/10/13 15:46:24;;;;;;;0.15;0.15;;;;;;;;;;5110995;27;20055;-80
2023/10/13 15:48:55;;;;;;;3.20;0.55;;;;;;;;;;5112175;27;20436;-82
2023/10/13 15:51:39;;;;;;;0.40;0.40;;;;;;;;;;5131617;27;20051;-82
2023/10/13 15:54:14;;;;;;;0.40;0.32;;;;;;;;;;5132563;27;20143;-82
2023/10/13 15:56:44;;;;;;;0.10;0.10;;;;;;;;;;5125584;27;20055;-83
2023/10/13 15:59:11;;;;;;;0.52;0.45;;;;;;;;;;5112535;27;20032;-83
2023/10/13 16:01:39;;;;;;;0.10;0.10;;;;;;;;;;5114891;27;20059;-82
2023/10/13 16:04:13;;;;;;;1.00;0.68;;;;;;;;;;5126615;27;20587;-82
2023/10/13 16:06:41;;;;;;;0.98;0.90;;;;;;;;;;5111817;27;20052;-82
2023/10/13 16:09:22;;;;;;;0.20;0.20;;;;;;;;;;5128798;27;20134;-82
2023/10/13 16:11:51;;;;;;;2.60;0.85;;;;;;;;;;5112896;27;20657;-81
2023/10/13 16:14:17;;;;;;;0.20;0.20;;;;;;;;;;5112162;27;20055;-81
2023/10/13 16:16:52;;;;;;;0.57;0.55;;;;;;;;;;5124684;27;20066;-81
2023/10/13 16:19:23;;;;;;;0.63;0.45;;;;;;;;;;5108292;27;20133;-81
2023/10/13 16:21:50;;;;;;;1.45;0.68;;;;;;;;;;5113903;27;20477;-81
2023/10/13 16:24:17;;;;;;;0.30;0.30;;;;;;;;;;5105556;27;20113;-81
2023/10/13 16:26:58;;;;;;;0.50;0.35;;;;;;;;;;5107377;27;20051;-80
2023/10/13 16:29:31;;;;;;;0.10;0.10;;;;;;;;;;5127447;27;20060;-81
2023/10/13 16:31:59;;;;;;;0.57;0.43;;;;;;;;;;5127986;27;20052;-81
2023/10/13 16:34:26;;;;;;;0.35;0.30;;;;;;;;;;5110422;27;20067;-81
2023/10/13 16:36:55;;;;;;;0.38;0.20;;;;;;;;;;5129357;27;20060;-82
2023/10/13 16:39:22;;;;;;;0.45;0.35;;;;;;;;;;5116000;27;20040;-82
2023/10/13 16:41:51;;;;;;;0.20;0.20;;;;;;;;;;5112720;27;20062;-82
2023/10/13 16:44:18;;;;;;;0.10;0.10;;;;;;;;;;5111940;27;20832;-82
2023/10/13 16:46:44;;;;;;;0.10;0.10;;;;;;;;;;5127957;27;20048;-81
2023/10/13 16:49:11;;;;;;;0.73;0.38;;;;;;;;;;5112604;27;20058;-82
2023/10/13 16:51:37;;;;;;;0.80;0.43;;;;;;;;;;5113039;27;20078;-81
2023/10/13 16:54:04;;;;;;;0.25;0.25;;;;;;;;;;5112658;27;20138;-82
2023/10/13 16:56:31;;;;;;;1.30;0.55;;;;;;;;;;5113962;27;20059;-82
2023/10/13 16:58:58;;;;;;;0.20;0.20;;;;;;;;;;5112941;27;20056;-82
2023/10/13 17:01:24;;;;;;;0.57;0.22;;;;;;;;;;5131484;27;20477;-82
2023/10/13 17:03:53;;;;;;;0.25;0.20;;;;;;;;;;5126956;27;20607;-82
2023/10/13 17:06:21;;;;;;;0.30;0.28;;;;;;;;;;5114269;27;20055;-82
2023/10/13 17:08:48;;;;;;;0.63;0.40;;;;;;;;;;5111958;27;20058;-83
2023/10/13 17:11:16;;;;;;;1.95;0.22;;;;;;;;;;5111682;27;20052;-82
2023/10/13 17:13:45;;;;;;;0.70;0.43;;;;;;;;;;5125239;27;20829;-82
2023/10/13 17:16:12;;;;;;;1.70;1.00;;;;;;;;;;5115090;27;20055;-82
2023/10/13 17:18:40;;;;;;;0.50;0.32;;;;;;;;;;5112817;27;20120;-79
2023/10/13 17:21:33;;;;;;;1.38;0.50;;;;;;;;;;5109655;27;20052;-78
2023/10/13 17:24:01;;;;;;;0.80;0.68;;;;;;;;;;5104574;27;20063;-78
2023/10/13 17:26:28;;;;;;;0.10;0.10;;;;;;;;;;5106898;27;20051;-78
2023/10/13 17:28:55;;;;;;;0.63;0.47;;;;;;;;;;5111634;27;20103;-79
2023/10/13 17:31:22;;;;;;;0.50;0.43;;;;;;;;;;5130581;27;20087;-79
2023/10/13 17:33:48;;;;;;;0.22;0.22;;;;;;;;;;5114554;27;21415;-78
2023/10/13 17:36:15;;;;;;;0.20;0.20;;;;;;;;;;5132371;27;20058;-82
2023/10/13 17:38:44;;;;;;;0.47;0.43;;;;;;;;;;5129317;27;20884;-81
2023/10/13 17:41:12;;;;;;;0.10;0.10;;;;;;;;;;5131093;27;20036;-81
2023/10/13 17:43:39;;;;;;;0.13;0.13;;;;;;;;;;5132187;27;20885;-81
2023/10/13 17:46:06;;;;;;;0.30;0.30;;;;;;;;;;5111228;27;20091;-81
2023/10/13 17:48:33;;;;;;;0.90;0.85;;;;;;;;;;5130145;27;20573;-81
2023/10/13 17:51:04;;;;;;;0.57;0.35;;;;;;;;;;5110936;27;20091;-81
2023/10/13 17:53:34;;;;;;;0.63;0.57;;;;;;;;;;5109630;27;20051;-81
2023/10/13 17:56:05;;;;;;;0.57;0.52;;;;;;;;;;5132344;27;20054;-82
2023/10/13 17:58:32;;;;;;;0.25;0.25;;;;;;;;;;5111574;27;20579;-81
2023/10/13 18:01:04;;;;;;;0.77;0.40;;;;;;;;;;5129740;27;20452;-82
2023/10/13 18:03:30;;;;;;;0.52;0.30;;;;;;;;;;5130799;27;20047;-81
2023/10/13 18:06:00;;;;;;;0.45;0.40;;;;;;;;;;5113798;27;21861;-82
2023/10/13 18:08:31;;;;;;;0.10;0.10;;;;;;;;;;5104822;27;20079;-81
2023/10/13 18:10:58;;;;;;;0.20;0.20;;;;;;;;;;5111958;27;20056;-82
2023/10/13 18:13:25;;;;;;;2.72;1.15;;;;;;;;;;5107920;27;20067;-83
2023/10/13 18:15:52;;;;;;;0.20;0.20;;;;;;;;;;5114132;27;20060;-83
2023/10/13 18:18:20;;;;;;;9.13;0.45;;;;;;;;;;5114031;27;20031;-83
2023/10/13 18:20:51;;;;;;;2.08;0.95;;;;;;;;;;5108147;27;20052;-83
2023/10/13 18:23:20;;;;;;;0.20;0.20;;;;;;;;;;5131610;27;20398;-83
2023/10/13 18:25:48;;;;;;;0.75;0.65;;;;;;;;;;5112645;27;20056;-83
2023/10/13 18:28:15;;;;;;;0.75;0.73;;;;;;;;;;5115164;27;20603;-84
2023/10/13 18:30:41;;;;;;;1.85;0.95;;;;;;;;;;5111106;27;20051;-83
2023/10/13 18:33:11;;;;;;;0.10;0.10;;;;;;;;;;5118544;27;20140;-82
2023/10/13 18:35:38;;;;;;;0.55;0.40;;;;;;;;;;5130358;27;20055;-81
2023/10/13 18:38:05;;;;;;;0.60;0.55;;;;;;;;;;5110486;27;20547;-83
2023/10/13 18:40:35;;;;;;;1.05;0.90;;;;;;;;;;5110832;27;20056;-81
2023/10/13 18:43:03;;;;;;;0.32;0.30;;;;;;;;;;5133572;27;20551;-81
2023/10/13 18:45:31;;;;;;;0.20;0.20;;;;;;;;;;5129177;27;20157;-81